Terminal Aerodrome Forecast
Issued by NWS

Home | Current Version | Previous Version | Text Only | Print | Product List | Glossary On
Versions: 1 2 3 4 5 6 7 8 9 10 11 12 13 14 15 16 17 18 19 20 21 22 23 24 25 26 27 28
000
FTUS41 KBUF 220200 AAA
TAFJHW
TAF AMD
KJHW 220251Z 2203/2224 01010KT 2SM -DZ BR OVC003
     FM221200 01008KT P6SM OVC007
     FM221700 36010KT P6SM OVC012
     FM222100 35012KT P6SM OVC020
      AMD LTD TO CLD VIS AND WIND=

USA.gov is the U.S. government's official web portal to all federal, state and local government web resources and services.